Pierport, Michigan
Current Conditions -  °F | °C
As of 11:15 PM on Wednesday 17 Dec 2014 (Local Time) from KMBL Reporting Station
Overcast Overcast  
Wind Chill: 22°   Ceiling: 1800
Heat Index: 30°   Visibility: 3mi
Dew Point: 25°   Wind: 9mph
Humidity: 80%   Direction: 320°NW
Pressure: 30.16"   Gusts: 20mph
Location:  44.4397°N, 86.1119°W
Report Text: KMBL 180415Z AUTO 32008G17KT 3SM FEW011 BKN018 OVC026 M01/M04 A3016 RMK AO1
Loading
Personal Weather Stations






























Interactive Weather Map New forecast layout! Learn more

10-Day Weather Forecast

Advertisements
Track Severe Weather on mobile